Latest Weather Observations for Trangie

IDN60801

Issued at 10:32 am EDT Monday 27 February 2017 (issued every 30 minutes, with the page automatically refreshed every 10 minutes)

About weather observations | Map of weather stations | Latest weather observations for NSW | Other Formats
Station Details ID: 051049 Name: TRANGIE RESEARCH STATION AWS Lat: -31.99 Lon: 147.95 Height: 215.0 m
Data from the previous 72 hours. | See also: Recent months at Trangie
Date/Time
EDT
Temp
°C
App
Temp
°C
Dew
Point
°C
Rel
Hum
%
Delta-T
°C
Wind Press
QNH
hPa
Press
MSL
hPa
Rain since
9am
mm
Dir  Spd
km/h
Gust
km/h
Spd
kts
Gust
kts
27/10:30am 25.0 22.1 12.2 44 7.4 E 19 32 10 17 1021.9 1020.8 0.0
27/10:00am 23.9 20.5 12.5 49 6.6 E 22 32 12 17 1022.1 1021.0 0.0
27/09:30am 23.3 20.7 13.2 53 5.9 E 19 30 10 16 1022.0 1020.9 0.0
27/09:00am 21.6 18.9 13.0 58 4.9 E 19 32 10 17 1022.0 1020.9 0.0
27/08:30am 19.9 16.8 12.2 61 4.3 E 20 32 11 17 1021.9 1020.8 0.0
27/08:00am 18.7 16.4 11.8 64 3.8 E 15 26 8 14 1021.5 1020.4 0.0
27/07:30am 17.3 15.3 11.6 69 3.1 E 13 19 7 10 1021.2 1020.1 0.0
27/07:00am 16.9 15.3 11.6 71 2.9 ESE 11 20 6 11 1020.9 1019.7 0.0
27/06:30am 16.5 14.9 11.4 72 2.8 ESE 11 17 6 9 1020.6 1019.4 0.0
27/06:00am 17.0 15.4 11.7 71 2.9 ESE 11 17 6 9 1020.3 1019.1 0.0
27/05:30am 16.7 15.5 11.6 72 2.8 ESE 9 13 5 7 1020.0 1018.8 0.0
27/05:00am 16.1 15.2 10.6 70 2.9 ESE 6 11 3 6 1020.1 1018.9 0.0
27/04:30am 18.3 16.3 11.6 65 3.7 E 13 22 7 12 1019.9 1018.7 0.0
27/04:00am 18.7 16.7 11.5 63 4.0 E 13 20 7 11 1019.9 1018.7 0.0
27/03:30am 19.1 17.2 11.7 62 4.1 E 13 19 7 10 1020.1 1018.9 0.0
27/03:00am 19.5 17.5 11.5 60 4.4 E 13 22 7 12 1020.3 1019.1 0.0
27/02:30am 20.0 17.7 11.8 59 4.6 E 15 26 8 14 1020.3 1019.1 0.0
27/02:00am 20.4 17.7 11.6 57 4.9 E 17 26 9 14 1020.3 1019.1 0.0
27/01:30am 20.9 18.1 11.5 55 5.3 E 17 30 9 16 1020.2 1019.0 0.0
27/01:00am 21.3 18.2 11.6 54 5.4 E 19 32 10 17 1020.3 1019.1 0.0
27/12:30am 21.5 19.1 11.5 53 5.6 E 15 26 8 14 1020.1 1018.9 0.0
27/12:00am 22.1 18.8 11.5 51 6.0 E 20 32 11 17 1020.0 1018.8 0.0
 
Date/Time
EDT
Temp
°C
App
Temp
°C
Dew
Point
°C
Rel
Hum
%
Delta-T
°C
Wind Press
QNH
hPa
Press
MSL
hPa
Rain since
9am
mm
Dir  Spd
km/h
Gust
km/h
Spd
kts
Gust
kts
26/11:30pm 22.8 19.6 11.8 50 6.2 E 20 37 11 20 1019.9 1018.7 0.0
26/11:00pm 23.5 20.3 11.9 48 6.6 E 20 37 11 20 1019.7 1018.5 0.0
26/10:30pm 24.3 21.3 11.9 45 7.1 E 19 37 10 20 1019.3 1018.1 0.0
26/10:00pm 25.2 21.2 11.7 43 7.7 E 24 35 13 19 1018.6 1017.4 0.0
26/09:30pm 25.2 22.9 10.6 40 8.2 E 13 17 7 9 1017.9 1016.8 0.0
26/09:00pm 26.1 23.7 9.9 36 9.0 E 13 19 7 10 1017.4 1016.3 0.0
26/08:30pm 26.5 23.9 9.4 34 9.5 ESE 13 20 7 11 1017.0 1015.9 0.0
26/08:00pm 27.3 24.8 9.6 33 9.9 ESE 13 20 7 11 1016.6 1015.4 0.0
26/07:30pm 28.6 25.0 9.8 31 10.6 E 19 32 10 17 1016.0 1014.8 0.0
26/07:00pm 29.5 26.3 10.1 30 11.1 ESE 17 33 9 18 1015.7 1014.5 0.0
26/06:30pm 30.3 27.3 10.8 30 11.3 ESE 17 30 9 16 1015.6 1014.4 0.0
26/06:00pm 31.0 28.1 10.9 29 11.7 SE 17 28 9 15 1015.4 1014.2 0.0
26/05:30pm 31.6 29.2 11.4 29 11.9 ESE 15 32 8 17 1015.3 1014.1 0.0
26/05:00pm 32.1 29.4 11.8 29 12.0 ESE 17 30 9 16 1015.2 1014.0 0.0
26/04:30pm 32.5 30.0 12.2 29 12.1 ESE 17 30 9 16 1015.4 1014.2 0.0
26/04:00pm 32.3 29.5 12.5 30 11.9 ESE 19 30 10 16 1015.6 1014.4 0.0
26/03:30pm 31.4 28.2 11.2 29 11.8 E 19 30 10 16 1015.7 1014.5 0.0
26/03:00pm 31.9 29.6 11.7 29 11.9 ENE 15 26 8 14 1016.1 1014.9 0.0
26/02:30pm 31.7 29.8 13.0 32 11.3 E 15 24 8 13 1016.5 1015.3 0.0
26/02:00pm 31.5 29.0 12.3 31 11.4 ENE 17 26 9 14 1017.0 1015.9 0.0
26/01:30pm 30.3 28.3 12.7 34 10.5 E 15 26 8 14 1017.4 1016.3 0.0
26/01:00pm 30.7 28.8 13.0 33 10.6 E 15 26 8 14 1017.8 1016.7 0.0
26/12:30pm 29.1 26.8 12.9 37 9.6 ENE 17 26 9 14 1018.3 1017.1 0.0
26/12:00pm 29.1 27.6 14.1 40 9.1 E 15 28 8 15 1018.5 1017.3 0.0
26/11:30am 28.1 25.4 13.6 41 8.7 ENE 20 35 11 19 1018.7 1017.5 0.0
26/11:00am 28.0 25.6 14.3 43 8.3 E 20 32 11 17 1018.8 1017.6 0.0
26/10:30am 26.9 23.8 14.6 46 7.5 E 24 39 13 21 1018.8 1017.6 0.0
26/10:00am 25.4 21.8 14.2 50 6.7 E 26 39 14 21 1018.9 1017.7 0.0
26/09:30am 24.4 21.4 14.8 55 5.8 E 24 41 13 22 1018.8 1017.6 0.0
26/09:00am 23.2 20.0 14.2 57 5.3 E 24 39 13 21 1018.7 1017.5 0.0
26/08:30am 22.2 19.6 14.8 63 4.4 E 22 39 12 21 1018.3 1017.1 0.0
26/08:00am 21.2 18.6 14.8 67 3.8 E 22 35 12 19 1018.2 1017.0 0.0
26/07:30am 20.4 18.3 14.7 70 3.4 E 19 32 10 17 1017.7 1016.6 0.0
26/07:00am 19.9 18.5 14.5 71 3.2 E 15 26 8 14 1017.0 1015.9 0.0
26/06:30am 20.1 17.7 14.5 70 3.3 E 20 28 11 15 1016.7 1015.5 0.0
26/06:00am 20.3 18.2 14.7 70 3.3 E 19 35 10 19 1016.4 1015.2 0.0
26/05:30am 20.4 18.7 14.7 70 3.4 E 17 28 9 15 1016.1 1014.9 0.0
26/05:00am 20.5 18.8 14.6 69 3.5 E 17 24 9 13 1015.8 1014.6 0.0
26/04:30am 20.7 18.6 14.8 69 3.5 E 19 30 10 16 1015.6 1014.4 0.0
26/04:00am 20.9 18.7 14.8 68 3.6 E 20 39 11 21 1015.5 1014.3 0.0
26/03:30am 21.0 19.3 14.6 67 3.8 E 17 26 9 14 1015.6 1014.4 0.0
26/03:00am 21.2 19.1 14.8 67 3.8 E 19 26 10 14 1015.9 1014.7 0.0
26/02:30am 21.5 19.3 14.9 66 3.9 E 20 32 11 17 1016.1 1014.9 0.0
26/02:00am 21.6 19.3 14.7 65 4.1 E 20 33 11 18 1016.1 1014.9 0.0
26/01:30am 21.5 19.2 14.6 65 4.1 E 20 32 11 17 1016.3 1015.1 0.0
26/01:00am 21.9 18.8 14.5 63 4.4 E 24 41 13 22 1016.4 1015.2 0.0
26/12:30am 22.1 19.0 14.5 62 4.5 E 24 33 13 18 1016.4 1015.2 0.0
26/12:00am 22.5 19.4 14.6 61 4.7 E 24 39 13 21 1016.3 1015.1 0.0
 
Date/Time
EDT
Temp
°C
App
Temp
°C
Dew
Point
°C
Rel
Hum
%
Delta-T
°C
Wind Press
QNH
hPa
Press
MSL
hPa
Rain since
9am
mm
Dir  Spd
km/h
Gust
km/h
Spd
kts
Gust
kts
25/11:30pm 22.9 20.6 14.7 60 4.9 E 20 32 11 17 1016.2 1015.0 0.0
25/11:00pm 23.5 21.4 14.8 58 5.2 E 19 35 10 19 1015.8 1014.6 0.0
25/10:30pm 24.2 22.1 14.6 55 5.8 E 19 35 10 19 1015.2 1014.0 0.0
25/10:00pm 25.5 23.1 14.3 50 6.7 ESE 20 33 11 18 1014.8 1013.6 0.0
25/09:30pm 26.3 24.5 14.4 48 7.2 E 17 28 9 15 1014.1 1012.9 0.0
25/09:00pm 27.3 24.1 14.3 45 7.8 E 24 46 13 25 1014.1 1012.9 0.0
25/08:30pm 28.1 24.9 14.3 42 8.4 ESE 24 41 13 22 1013.4 1012.2 0.0
25/08:00pm 29.2 27.2 7.2 25 11.9 SSE 7 9 4 5 1012.4 1011.2 0.0
25/07:30pm 31.5 29.7 7.9 23 13.1 SSE 7 9 4 5 1012.1 1010.9 0.0
25/07:00pm 33.5 31.4 8.2 21 14.3 SSE 9 15 5 8 1011.7 1010.5 0.0
25/06:30pm 33.9 31.1 8.5 21 14.4 SSE 13 19 7 10 1011.6 1010.4 0.0
25/06:00pm 34.5 32.2 9.0 21 14.6 SE 11 20 6 11 1011.6 1010.4 0.0
25/05:30pm 35.0 32.4 7.9 19 15.3 S 11 17 6 9 1011.8 1010.6 0.0
25/05:00pm 35.3 33.4 8.9 20 15.2 SSE 9 17 5 9 1012.0 1010.8 0.0
25/04:30pm 34.7 33.4 9.9 22 14.4 SSE 7 13 4 7 1012.3 1011.1 0.0
25/04:00pm 34.2 32.7 10.7 24 13.8 S 9 15 5 8 1012.6 1011.4 0.0
25/03:30pm 36.1 35.1 11.0 22 14.9 NE 7 15 4 8 1013.0 1011.9 0.0
25/03:00pm 35.6 33.3 11.9 24 14.3 SE 15 30 8 16 1013.5 1012.3 0.0
25/02:30pm 34.5 33.1 11.0 24 13.9 ENE 9 19 5 10 1014.0 1012.8 0.0
25/02:00pm 33.3 31.4 10.6 25 13.3 ESE 11 22 6 12 1014.4 1013.2 0.0
25/01:30pm 34.8 33.7 11.9 25 13.7 SSE 9 13 5 7 1014.8 1013.6 0.0
25/01:00pm 33.5 32.0 11.9 27 12.9 ESE 11 19 6 10 1015.3 1014.1 0.0
25/12:30pm 32.9 32.0 12.5 29 12.3 ESE 9 20 5 11 1015.6 1014.4 0.0
25/12:00pm 32.4 30.9 13.1 31 11.7 ENE 13 28 7 15 1016.0 1014.8 0.0
25/11:30am 31.3 29.2 13.6 34 10.7 E 17 26 9 14 1016.6 1015.4 0.0
25/11:00am 30.1 27.6 13.4 36 10.0 ENE 19 28 10 15 1016.9 1015.8 0.0
25/10:30am 28.7 26.3 13.8 40 9.0 E 19 30 10 16 1017.1 1016.0 0.0
25/10:00am 27.3 24.9 14.3 45 7.8 E 20 30 11 16 1017.3 1016.2 0.0
25/09:30am 26.3 24.1 14.4 48 7.2 E 19 33 10 18 1017.3 1016.2 0.0
25/09:00am 24.4 22.0 14.5 54 5.9 E 20 35 11 19 1017.3 1016.2 0.0
25/08:30am 23.3 21.4 15.1 60 4.9 E 19 30 10 16 1017.3 1016.2 0.0
25/08:00am 22.0 20.7 14.9 64 4.2 ESE 15 24 8 13 1017.3 1016.2 0.0
25/07:30am 20.4 20.1 14.5 69 3.5 ESE 9 17 5 9 1017.3 1016.2 0.0
25/07:00am 19.4 19.1 14.4 73 2.9 ESE 9 15 5 8 1017.0 1015.9 0.0
25/06:30am 18.9 18.7 13.7 72 3.0 ESE 7 13 4 7 1016.5 1015.3 0.0
25/06:00am 20.0 19.7 14.4 70 3.3 ESE 9 15 5 8 1016.3 1015.1 0.0
25/05:30am 20.5 20.3 14.8 70 3.4 ESE 9 15 5 8 1016.1 1014.9 0.0
25/05:00am 20.8 20.5 14.5 67 3.7 SE 9 13 5 7 1016.1 1014.9 0.0
25/04:30am 20.7 19.9 12.9 61 4.5 SE 9 13 5 7 1015.8 1014.6 0.0
25/04:00am 21.9 20.9 13.3 58 5.0 SE 11 20 6 11 1015.8 1014.6 0.0
25/03:30am 22.4 21.5 12.6 54 5.6 SSE 9 15 5 8 1015.8 1014.6 0.0
25/03:00am 21.0 18.6 6.9 40 7.3 SE 9 15 5 8 1015.8 1014.6 0.0
25/02:30am 22.0 19.0 2.2 27 9.4 SE 7 13 4 7 1015.8 1014.6 0.0
25/02:00am 23.4 20.1 2.3 25 10.1 S 9 13 5 7 1016.0 1014.8 0.0
25/01:30am 25.4 21.1 3.4 24 10.9 S 15 24 8 13 1016.1 1014.9 0.0
25/01:00am 21.4 19.3 6.5 38 7.6 S 7 11 4 6 1016.3 1015.1 0.0
25/12:30am 22.5 20.2 7.5 38 7.9 S 9 11 5 6 1016.3 1015.1 0.0
25/12:00am 23.3 21.4 6.6 34 8.7 SSE 6 9 3 5 1016.4 1015.2 0.0
 
Date/Time
EDT
Temp
°C
App
Temp
°C
Dew
Point
°C
Rel
Hum
%
Delta-T
°C
Wind Press
QNH
hPa
Press
MSL
hPa
Rain since
9am
mm
Dir  Spd
km/h
Gust
km/h
Spd
kts
Gust
kts
24/11:30pm 24.9 21.9 4.1 26 10.4 SE 9 13 5 7 1016.5 1015.3 0.0
24/11:00pm 26.3 22.8 3.5 23 11.4 SE 11 15 6 8 1016.5 1015.3 0.0
24/10:30pm 28.0 24.0 3.0 20 12.5 SSE 13 20 7 11 1016.4 1015.2 0.0
24/10:00pm 28.8 24.9 3.6 20 12.8 S 13 20 7 11 1016.2 1015.0 0.0
24/09:30pm 29.1 25.3 3.9 20 12.9 S 13 17 7 9 1016.0 1014.8 0.0
24/09:00pm 29.9 26.1 3.8 19 13.4 SSW 13 19 7 10 1015.8 1014.6 0.0
24/08:30pm 31.5 26.6 4.3 18 14.2 SSW 19 26 10 14 1015.4 1014.2 0.0
24/08:00pm 32.5 27.9 3.5 16 15.1 SSW 17 24 9 13 1015.0 1013.8 0.0
24/07:30pm 34.5 29.4 3.1 14 16.4 SSW 19 28 10 15 1014.5 1013.3 0.0
24/07:00pm 35.9 30.1 2.1 12 17.5 SSW 22 30 12 16 1014.3 1013.1 0.0
24/06:30pm 37.1 31.2 1.8 11 18.3 SW 22 30 12 16 1014.0 1012.8 0.0
24/06:00pm 37.7 31.5 2.2 11 18.6 SW 24 35 13 19 1014.0 1012.8 0.0
24/05:30pm 38.2 33.0 2.6 11 18.8 SW 19 30 10 16 1014.0 1012.8 0.0
24/05:00pm 36.4 31.6 4.6 14 17.2 SW 19 32 10 17 1014.2 1013.0 0.0
24/04:30pm 38.3 33.8 6.1 14 18.0 W 19 33 10 18 1014.1 1012.9 0.0
24/04:00pm 38.7 35.1 8.4 16 17.5 WSW 17 30 9 16 1014.2 1013.0 0.0
24/03:30pm 38.8 35.4 7.5 15 17.9 SW 15 28 8 15 1014.7 1013.5 0.0
24/03:00pm 38.9 36.6 7.6 15 17.9 WSW 9 22 5 12 1015.1 1013.9 0.0
24/02:30pm 38.1 34.0 7.9 16 17.3 WSW 19 32 10 17 1015.8 1014.6 0.0
24/02:00pm 37.9 34.4 8.6 17 16.9 WNW 17 26 9 14 1016.3 1015.1 0.0
24/01:30pm 37.3 33.7 8.2 17 16.7 WSW 17 24 9 13 1016.7 1015.5 0.0
24/01:00pm 36.8 33.6 8.6 18 16.2 W 15 20 8 11 1017.2 1016.1 0.0
24/12:30pm 36.0 32.9 8.7 19 15.7 WNW 15 20 8 11 1017.7 1016.6 0.0
24/12:00pm 34.7 32.2 8.4 20 14.9 W 11 20 6 11 1018.2 1017.0 0.0
24/11:30am 33.9 31.5 9.9 23 13.9 WNW 13 20 7 11 1018.5 1017.3 0.0
24/11:00am 33.4 31.0 10.1 24 13.5 NNW 13 17 7 9 1018.7 1017.5 0.0

Other Formats:

Comma delimited format used in spreadsheet applications
http://www.bom.gov.au/fwo/IDN60801/IDN60801.95710.axf

JavaScript Object Notation format (JSON) in row-major order
http://www.bom.gov.au/fwo/IDN60801/IDN60801.95710.json